sensor_id;sensor_type;location;lat;lon;timestamp;P1;durP1;ratioP1;P2;durP2;ratioP2
6723;SDS011;3399;52.530;13.304;2022-10-31T00:01:56;28.27;;;22.97;;
6723;SDS011;3399;52.530;13.304;2022-10-31T00:04:21;30.60;;;21.90;;
6723;SDS011;3399;52.530;13.304;2022-10-31T00:06:46;30.00;;;24.07;;
6723;SDS011;3399;52.530;13.304;2022-10-31T00:09:12;35.13;;;23.73;;
6723;SDS011;3399;52.530;13.304;2022-10-31T00:11:37;29.60;;;23.07;;
6723;SDS011;3399;52.530;13.304;2022-10-31T00:14:03;36.40;;;25.13;;
6723;SDS011;3399;52.530;13.304;2022-10-31T00:16:29;34.57;;;26.13;;
6723;SDS011;3399;52.530;13.304;2022-10-31T00:18:55;35.33;;;26.03;;
6723;SDS011;3399;52.530;13.304;2022-10-31T00:21:25;30.57;;;23.27;;
6723;SDS011;3399;52.530;13.304;2022-10-31T00:23:52;35.03;;;24.93;;
6723;SDS011;3399;52.530;13.304;2022-10-31T00:26:17;31.63;;;24.93;;
6723;SDS011;3399;52.530;13.304;2022-10-31T00:28:43;27.30;;;22.03;;
6723;SDS011;3399;52.530;13.304;2022-10-31T00:31:09;31.20;;;24.77;;
6723;SDS011;3399;52.530;13.304;2022-10-31T00:33:37;34.80;;;24.90;;
6723;SDS011;3399;52.530;13.304;2022-10-31T00:36:03;36.93;;;25.63;;
6723;SDS011;3399;52.530;13.304;2022-10-31T00:38:30;25.63;;;22.10;;
6723;SDS011;3399;52.530;13.304;2022-10-31T00:40:56;31.60;;;23.57;;
6723;SDS011;3399;52.530;13.304;2022-10-31T00:43:21;28.03;;;22.07;;
6723;SDS011;3399;52.530;13.304;2022-10-31T00:45:47;31.20;;;21.53;;
6723;SDS011;3399;52.530;13.304;2022-10-31T00:48:13;29.87;;;19.10;;
6723;SDS011;3399;52.530;13.304;2022-10-31T00:50:38;26.37;;;18.43;;
6723;SDS011;3399;52.530;13.304;2022-10-31T00:53:04;32.33;;;20.83;;
6723;SDS011;3399;52.530;13.304;2022-10-31T00:55:30;27.97;;;19.63;;
6723;SDS011;3399;52.530;13.304;2022-10-31T00:57:56;26.10;;;20.63;;
6723;SDS011;3399;52.530;13.304;2022-10-31T01:00:21;22.83;;;18.63;;
6723;SDS011;3399;52.530;13.304;2022-10-31T01:02:47;23.63;;;18.70;;
6723;SDS011;3399;52.530;13.304;2022-10-31T01:05:12;23.20;;;17.57;;
6723;SDS011;3399;52.530;13.304;2022-10-31T01:07:39;18.70;;;15.47;;
6723;SDS011;3399;52.530;13.304;2022-10-31T01:10:06;19.77;;;16.10;;
6723;SDS011;3399;52.530;13.304;2022-10-31T01:12:38;21.93;;;16.70;;
6723;SDS011;3399;52.530;13.304;2022-10-31T01:15:05;17.37;;;15.47;;
6723;SDS011;3399;52.530;13.304;2022-10-31T01:17:31;19.50;;;15.90;;
6723;SDS011;3399;52.530;13.304;2022-10-31T01:19:57;21.93;;;16.13;;
6723;SDS011;3399;52.530;13.304;2022-10-31T01:22:22;24.93;;;16.87;;
6723;SDS011;3399;52.530;13.304;2022-10-31T01:24:48;24.67;;;16.20;;
6723;SDS011;3399;52.530;13.304;2022-10-31T01:27:13;21.97;;;16.93;;
6723;SDS011;3399;52.530;13.304;2022-10-31T01:29:39;20.83;;;16.87;;
6723;SDS011;3399;52.530;13.304;2022-10-31T01:32:04;22.73;;;16.53;;
6723;SDS011;3399;52.530;13.304;2022-10-31T01:34:30;24.27;;;16.10;;
6723;SDS011;3399;52.530;13.304;2022-10-31T01:36:55;18.67;;;15.57;;
6723;SDS011;3399;52.530;13.304;2022-10-31T01:39:21;23.87;;;17.13;;
6723;SDS011;3399;52.530;13.304;2022-10-31T01:41:47;21.63;;;15.93;;
6723;SDS011;3399;52.530;13.304;2022-10-31T01:46:44;18.37;;;16.40;;
6723;SDS011;3399;52.530;13.304;2022-10-31T01:49:34;22.97;;;17.03;;
6723;SDS011;3399;52.530;13.304;2022-10-31T01:52:04;20.53;;;16.33;;
6723;SDS011;3399;52.530;13.304;2022-10-31T01:54:37;23.57;;;15.20;;
6723;SDS011;3399;52.530;13.304;2022-10-31T01:57:05;24.33;;;16.13;;
6723;SDS011;3399;52.530;13.304;2022-10-31T01:59:35;25.10;;;16.80;;
6723;SDS011;3399;52.530;13.304;2022-10-31T02:02:05;24.60;;;15.53;;
6723;SDS011;3399;52.530;13.304;2022-10-31T02:04:31;20.53;;;16.00;;
6723;SDS011;3399;52.530;13.304;2022-10-31T02:07:05;25.53;;;15.77;;
6723;SDS011;3399;52.530;13.304;2022-10-31T02:09:35;19.87;;;15.60;;
6723;SDS011;3399;52.530;13.304;2022-10-31T02:12:02;16.93;;;14.10;;
6723;SDS011;3399;52.530;13.304;2022-10-31T02:14:28;21.37;;;14.40;;
6723;SDS011;3399;52.530;13.304;2022-10-31T02:16:55;24.57;;;14.83;;
6723;SDS011;3399;52.530;13.304;2022-10-31T02:25:30;22.67;;;16.30;;
6723;SDS011;3399;52.530;13.304;2022-10-31T02:29:03;23.47;;;14.50;;
6723;SDS011;3399;52.530;13.304;2022-10-31T02:31:33;21.87;;;16.00;;
6723;SDS011;3399;52.530;13.304;2022-10-31T02:34:22;18.13;;;15.00;;
6723;SDS011;3399;52.530;13.304;2022-10-31T02:37:19;21.37;;;14.43;;
6723;SDS011;3399;52.530;13.304;2022-10-31T02:39:58;22.97;;;15.70;;
6723;SDS011;3399;52.530;13.304;2022-10-31T02:42:40;17.97;;;14.43;;
6723;SDS011;3399;52.530;13.304;2022-10-31T02:47:58;23.00;;;15.37;;
6723;SDS011;3399;52.530;13.304;2022-10-31T02:50:28;22.77;;;14.97;;
6723;SDS011;3399;52.530;13.304;2022-10-31T02:52:58;17.70;;;14.23;;
6723;SDS011;3399;52.530;13.304;2022-10-31T02:57:49;20.13;;;14.23;;
6723;SDS011;3399;52.530;13.304;2022-10-31T03:00:18;21.40;;;15.33;;
6723;SDS011;3399;52.530;13.304;2022-10-31T03:05:55;22.83;;;15.30;;
6723;SDS011;3399;52.530;13.304;2022-10-31T03:08:40;18.07;;;15.33;;
6723;SDS011;3399;52.530;13.304;2022-10-31T03:11:10;24.60;;;14.90;;
6723;SDS011;3399;52.530;13.304;2022-10-31T03:13:46;17.63;;;13.97;;
6723;SDS011;3399;52.530;13.304;2022-10-31T03:16:32;20.33;;;14.07;;
6723;SDS011;3399;52.530;13.304;2022-10-31T03:19:12;21.20;;;14.17;;
6723;SDS011;3399;52.530;13.304;2022-10-31T03:22:01;17.87;;;15.07;;
6723;SDS011;3399;52.530;13.304;2022-10-31T03:24:39;18.53;;;14.73;;
6723;SDS011;3399;52.530;13.304;2022-10-31T03:27:07;19.40;;;15.03;;
6723;SDS011;3399;52.530;13.304;2022-10-31T03:29:36;19.80;;;15.37;;
6723;SDS011;3399;52.530;13.304;2022-10-31T03:32:15;20.63;;;15.83;;
6723;SDS011;3399;52.530;13.304;2022-10-31T03:34:45;20.97;;;15.40;;
6723;SDS011;3399;52.530;13.304;2022-10-31T03:37:13;21.07;;;15.27;;
6723;SDS011;3399;52.530;13.304;2022-10-31T03:39:43;23.93;;;15.90;;
6723;SDS011;3399;52.530;13.304;2022-10-31T03:42:18;27.00;;;18.00;;
6723;SDS011;3399;52.530;13.304;2022-10-31T03:44:49;22.33;;;16.27;;
6723;SDS011;3399;52.530;13.304;2022-10-31T03:47:35;17.20;;;14.97;;
6723;SDS011;3399;52.530;13.304;2022-10-31T03:50:02;19.17;;;15.70;;
6723;SDS011;3399;52.530;13.304;2022-10-31T03:55:10;19.50;;;16.00;;
6723;SDS011;3399;52.530;13.304;2022-10-31T03:57:48;16.43;;;14.70;;
6723;SDS011;3399;52.530;13.304;2022-10-31T04:00:20;20.73;;;15.57;;
6723;SDS011;3399;52.530;13.304;2022-10-31T04:02:59;22.40;;;14.17;;
6723;SDS011;3399;52.530;13.304;2022-10-31T04:05:28;23.50;;;15.43;;
6723;SDS011;3399;52.530;13.304;2022-10-31T04:07:55;24.50;;;15.37;;
6723;SDS011;3399;52.530;13.304;2022-10-31T04:10:23;19.97;;;15.00;;
6723;SDS011;3399;52.530;13.304;2022-10-31T04:12:53;17.10;;;13.93;;
6723;SDS011;3399;52.530;13.304;2022-10-31T04:15:25;22.13;;;14.03;;
6723;SDS011;3399;52.530;13.304;2022-10-31T04:17:52;18.63;;;14.80;;
6723;SDS011;3399;52.530;13.304;2022-10-31T04:20:28;20.53;;;15.33;;
6723;SDS011;3399;52.530;13.304;2022-10-31T04:22:59;25.33;;;16.27;;
6723;SDS011;3399;52.530;13.304;2022-10-31T04:25:25;17.73;;;15.63;;
6723;SDS011;3399;52.530;13.304;2022-10-31T04:27:50;20.80;;;15.53;;
6723;SDS011;3399;52.530;13.304;2022-10-31T04:30:16;19.30;;;15.53;;
6723;SDS011;3399;52.530;13.304;2022-10-31T04:32:41;20.37;;;14.40;;
6723;SDS011;3399;52.530;13.304;2022-10-31T04:35:07;18.33;;;14.43;;
6723;SDS011;3399;52.530;13.304;2022-10-31T04:37:32;18.67;;;14.77;;
6723;SDS011;3399;52.530;13.304;2022-10-31T04:39:58;17.43;;;13.60;;
6723;SDS011;3399;52.530;13.304;2022-10-31T04:42:23;18.63;;;15.83;;
6723;SDS011;3399;52.530;13.304;2022-10-31T04:44:49;20.63;;;14.83;;
6723;SDS011;3399;52.530;13.304;2022-10-31T04:47:14;26.20;;;15.97;;
6723;SDS011;3399;52.530;13.304;2022-10-31T04:49:40;20.87;;;15.10;;
6723;SDS011;3399;52.530;13.304;2022-10-31T04:52:05;21.23;;;15.30;;
6723;SDS011;3399;52.530;13.304;2022-10-31T04:54:32;20.07;;;15.43;;
6723;SDS011;3399;52.530;13.304;2022-10-31T04:56:57;22.77;;;15.33;;
6723;SDS011;3399;52.530;13.304;2022-10-31T04:59:22;16.37;;;14.60;;
6723;SDS011;3399;52.530;13.304;2022-10-31T05:01:48;21.53;;;15.70;;
6723;SDS011;3399;52.530;13.304;2022-10-31T05:04:13;30.87;;;15.47;;
6723;SDS011;3399;52.530;13.304;2022-10-31T05:06:39;21.17;;;16.00;;
6723;SDS011;3399;52.530;13.304;2022-10-31T05:09:04;23.93;;;16.10;;
6723;SDS011;3399;52.530;13.304;2022-10-31T05:11:30;21.47;;;15.97;;
6723;SDS011;3399;52.530;13.304;2022-10-31T05:13:55;19.80;;;15.43;;
6723;SDS011;3399;52.530;13.304;2022-10-31T05:16:21;22.83;;;15.30;;
6723;SDS011;3399;52.530;13.304;2022-10-31T05:18:46;17.20;;;14.70;;
6723;SDS011;3399;52.530;13.304;2022-10-31T05:21:12;25.30;;;15.83;;
6723;SDS011;3399;52.530;13.304;2022-10-31T05:23:37;23.90;;;17.03;;
6723;SDS011;3399;52.530;13.304;2022-10-31T05:26:03;23.97;;;14.50;;
6723;SDS011;3399;52.530;13.304;2022-10-31T05:28:28;19.13;;;15.50;;
6723;SDS011;3399;52.530;13.304;2022-10-31T05:30:54;22.83;;;16.50;;
6723;SDS011;3399;52.530;13.304;2022-10-31T05:33:19;20.23;;;15.27;;
6723;SDS011;3399;52.530;13.304;2022-10-31T05:35:45;19.43;;;15.13;;
6723;SDS011;3399;52.530;13.304;2022-10-31T05:38:10;25.10;;;15.33;;
6723;SDS011;3399;52.530;13.304;2022-10-31T05:40:35;17.43;;;15.30;;
6723;SDS011;3399;52.530;13.304;2022-10-31T05:43:01;24.50;;;16.53;;
6723;SDS011;3399;52.530;13.304;2022-10-31T05:45:27;28.07;;;16.77;;
6723;SDS011;3399;52.530;13.304;2022-10-31T05:47:53;23.37;;;16.97;;
6723;SDS011;3399;52.530;13.304;2022-10-31T05:50:19;19.60;;;16.00;;
6723;SDS011;3399;52.530;13.304;2022-10-31T05:52:45;22.90;;;15.80;;
6723;SDS011;3399;52.530;13.304;2022-10-31T05:55:11;23.10;;;16.50;;
6723;SDS011;3399;52.530;13.304;2022-10-31T05:57:36;23.77;;;16.13;;
6723;SDS011;3399;52.530;13.304;2022-10-31T06:00:02;20.80;;;15.90;;
6723;SDS011;3399;52.530;13.304;2022-10-31T06:02:29;24.33;;;16.43;;
6723;SDS011;3399;52.530;13.304;2022-10-31T06:04:59;22.97;;;17.07;;
6723;SDS011;3399;52.530;13.304;2022-10-31T06:07:25;21.67;;;15.37;;
6723;SDS011;3399;52.530;13.304;2022-10-31T06:09:50;18.83;;;15.33;;
6723;SDS011;3399;52.530;13.304;2022-10-31T06:12:16;30.20;;;16.53;;
6723;SDS011;3399;52.530;13.304;2022-10-31T06:14:41;22.50;;;15.80;;
6723;SDS011;3399;52.530;13.304;2022-10-31T06:17:06;29.73;;;17.47;;
6723;SDS011;3399;52.530;13.304;2022-10-31T06:19:32;20.00;;;15.90;;
6723;SDS011;3399;52.530;13.304;2022-10-31T06:21:57;26.90;;;16.50;;
6723;SDS011;3399;52.530;13.304;2022-10-31T06:24:23;24.23;;;16.60;;
6723;SDS011;3399;52.530;13.304;2022-10-31T06:26:48;24.23;;;16.67;;
6723;SDS011;3399;52.530;13.304;2022-10-31T06:29:14;21.50;;;15.53;;
6723;SDS011;3399;52.530;13.304;2022-10-31T06:31:39;20.63;;;14.87;;
6723;SDS011;3399;52.530;13.304;2022-10-31T06:34:05;24.20;;;16.10;;
6723;SDS011;3399;52.530;13.304;2022-10-31T06:36:30;19.20;;;15.23;;
6723;SDS011;3399;52.530;13.304;2022-10-31T06:38:56;18.43;;;16.03;;
6723;SDS011;3399;52.530;13.304;2022-10-31T06:41:21;19.23;;;15.83;;
6723;SDS011;3399;52.530;13.304;2022-10-31T06:43:47;22.80;;;15.73;;
6723;SDS011;3399;52.530;13.304;2022-10-31T06:46:12;18.17;;;15.23;;
6723;SDS011;3399;52.530;13.304;2022-10-31T06:48:39;20.07;;;15.47;;
6723;SDS011;3399;52.530;13.304;2022-10-31T06:51:06;22.10;;;14.50;;
6723;SDS011;3399;52.530;13.304;2022-10-31T06:53:31;18.23;;;14.80;;
6723;SDS011;3399;52.530;13.304;2022-10-31T06:55:57;23.60;;;14.47;;
6723;SDS011;3399;52.530;13.304;2022-10-31T06:58:22;21.50;;;14.33;;
6723;SDS011;3399;52.530;13.304;2022-10-31T07:00:48;25.77;;;14.57;;
6723;SDS011;3399;52.530;13.304;2022-10-31T07:03:14;20.13;;;14.47;;
6723;SDS011;3399;52.530;13.304;2022-10-31T07:05:43;22.37;;;14.87;;
6723;SDS011;3399;52.530;13.304;2022-10-31T07:08:10;22.37;;;15.10;;
6723;SDS011;3399;52.530;13.304;2022-10-31T07:10:37;24.17;;;14.63;;
6723;SDS011;3399;52.530;13.304;2022-10-31T07:13:05;18.50;;;14.87;;
6723;SDS011;3399;52.530;13.304;2022-10-31T07:15:34;19.43;;;14.63;;
6723;SDS011;3399;52.530;13.304;2022-10-31T07:18:01;18.60;;;14.83;;
6723;SDS011;3399;52.530;13.304;2022-10-31T07:20:29;23.00;;;14.97;;
6723;SDS011;3399;52.530;13.304;2022-10-31T07:22:55;19.47;;;15.17;;
6723;SDS011;3399;52.530;13.304;2022-10-31T07:25:21;26.17;;;15.33;;
6723;SDS011;3399;52.530;13.304;2022-10-31T07:27:47;21.60;;;14.47;;
6723;SDS011;3399;52.530;13.304;2022-10-31T07:30:12;24.83;;;16.23;;
6723;SDS011;3399;52.530;13.304;2022-10-31T07:32:39;19.60;;;15.07;;
6723;SDS011;3399;52.530;13.304;2022-10-31T07:35:06;29.13;;;15.73;;
6723;SDS011;3399;52.530;13.304;2022-10-31T07:37:33;26.67;;;16.30;;
6723;SDS011;3399;52.530;13.304;2022-10-31T07:39:58;21.97;;;16.13;;
6723;SDS011;3399;52.530;13.304;2022-10-31T07:42:24;26.07;;;17.73;;
6723;SDS011;3399;52.530;13.304;2022-10-31T07:44:49;28.73;;;16.93;;
6723;SDS011;3399;52.530;13.304;2022-10-31T07:47:15;28.80;;;17.67;;
6723;SDS011;3399;52.530;13.304;2022-10-31T07:49:40;27.70;;;17.43;;
6723;SDS011;3399;52.530;13.304;2022-10-31T07:52:06;25.60;;;17.40;;
6723;SDS011;3399;52.530;13.304;2022-10-31T07:54:31;24.07;;;17.80;;
6723;SDS011;3399;52.530;13.304;2022-10-31T07:56:57;25.10;;;18.37;;
6723;SDS011;3399;52.530;13.304;2022-10-31T07:59:22;24.13;;;18.13;;
6723;SDS011;3399;52.530;13.304;2022-10-31T08:01:47;26.43;;;19.57;;
6723;SDS011;3399;52.530;13.304;2022-10-31T08:04:13;24.80;;;18.07;;
6723;SDS011;3399;52.530;13.304;2022-10-31T08:06:38;27.37;;;18.60;;
6723;SDS011;3399;52.530;13.304;2022-10-31T08:09:04;27.10;;;19.93;;
6723;SDS011;3399;52.530;13.304;2022-10-31T08:11:29;26.67;;;19.00;;
6723;SDS011;3399;52.530;13.304;2022-10-31T08:13:55;25.10;;;18.77;;
6723;SDS011;3399;52.530;13.304;2022-10-31T08:16:20;27.23;;;18.47;;
6723;SDS011;3399;52.530;13.304;2022-10-31T08:18:46;24.93;;;18.70;;
6723;SDS011;3399;52.530;13.304;2022-10-31T08:21:12;30.40;;;19.33;;
6723;SDS011;3399;52.530;13.304;2022-10-31T08:23:37;25.47;;;18.73;;
6723;SDS011;3399;52.530;13.304;2022-10-31T08:26:03;31.40;;;19.03;;
6723;SDS011;3399;52.530;13.304;2022-10-31T08:28:30;29.07;;;19.37;;
6723;SDS011;3399;52.530;13.304;2022-10-31T08:30:57;23.87;;;19.23;;
6723;SDS011;3399;52.530;13.304;2022-10-31T08:33:23;28.20;;;19.53;;
6723;SDS011;3399;52.530;13.304;2022-10-31T08:35:49;22.93;;;19.43;;
6723;SDS011;3399;52.530;13.304;2022-10-31T08:38:15;26.43;;;20.93;;
6723;SDS011;3399;52.530;13.304;2022-10-31T08:40:40;30.00;;;21.73;;
6723;SDS011;3399;52.530;13.304;2022-10-31T08:43:08;27.07;;;19.67;;
6723;SDS011;3399;52.530;13.304;2022-10-31T08:45:37;26.87;;;21.13;;
6723;SDS011;3399;52.530;13.304;2022-10-31T08:48:03;25.93;;;20.77;;
6723;SDS011;3399;52.530;13.304;2022-10-31T08:50:34;40.17;;;20.47;;
6723;SDS011;3399;52.530;13.304;2022-10-31T08:53:06;22.83;;;19.60;;
6723;SDS011;3399;52.530;13.304;2022-10-31T08:55:34;29.23;;;20.60;;
6723;SDS011;3399;52.530;13.304;2022-10-31T08:58:00;25.73;;;20.50;;
6723;SDS011;3399;52.530;13.304;2022-10-31T09:00:26;27.87;;;20.33;;
6723;SDS011;3399;52.530;13.304;2022-10-31T09:02:55;26.77;;;19.00;;
6723;SDS011;3399;52.530;13.304;2022-10-31T09:05:25;24.93;;;18.37;;
6723;SDS011;3399;52.530;13.304;2022-10-31T09:07:51;27.43;;;20.40;;
6723;SDS011;3399;52.530;13.304;2022-10-31T09:10:20;27.97;;;19.30;;
6723;SDS011;3399;52.530;13.304;2022-10-31T09:12:45;29.30;;;19.40;;
6723;SDS011;3399;52.530;13.304;2022-10-31T09:15:11;26.23;;;19.17;;
6723;SDS011;3399;52.530;13.304;2022-10-31T09:17:36;23.97;;;18.97;;
6723;SDS011;3399;52.530;13.304;2022-10-31T09:20:02;27.00;;;18.63;;
6723;SDS011;3399;52.530;13.304;2022-10-31T09:22:27;24.80;;;20.03;;
6723;SDS011;3399;52.530;13.304;2022-10-31T09:24:53;31.07;;;21.13;;
6723;SDS011;3399;52.530;13.304;2022-10-31T09:27:18;32.83;;;22.30;;
6723;SDS011;3399;52.530;13.304;2022-10-31T09:29:43;33.00;;;20.97;;
6723;SDS011;3399;52.530;13.304;2022-10-31T09:32:09;28.43;;;21.70;;
6723;SDS011;3399;52.530;13.304;2022-10-31T09:34:35;29.20;;;19.90;;
6723;SDS011;3399;52.530;13.304;2022-10-31T09:37:00;30.50;;;22.73;;
6723;SDS011;3399;52.530;13.304;2022-10-31T09:39:26;28.00;;;21.57;;
6723;SDS011;3399;52.530;13.304;2022-10-31T09:41:55;31.87;;;20.43;;
6723;SDS011;3399;52.530;13.304;2022-10-31T09:47:28;29.47;;;21.43;;
6723;SDS011;3399;52.530;13.304;2022-10-31T09:50:14;31.57;;;22.40;;
6723;SDS011;3399;52.530;13.304;2022-10-31T09:52:51;30.30;;;21.43;;
6723;SDS011;3399;52.530;13.304;2022-10-31T09:55:30;30.33;;;22.40;;
6723;SDS011;3399;52.530;13.304;2022-10-31T09:58:01;30.33;;;23.43;;
6723;SDS011;3399;52.530;13.304;2022-10-31T10:00:27;31.43;;;22.33;;
6723;SDS011;3399;52.530;13.304;2022-10-31T10:03:06;30.53;;;20.63;;
6723;SDS011;3399;52.530;13.304;2022-10-31T10:05:40;28.60;;;21.10;;
6723;SDS011;3399;52.530;13.304;2022-10-31T10:08:11;31.27;;;22.50;;
6723;SDS011;3399;52.530;13.304;2022-10-31T10:13:38;29.50;;;21.53;;
6723;SDS011;3399;52.530;13.304;2022-10-31T10:19:28;26.97;;;21.33;;
6723;SDS011;3399;52.530;13.304;2022-10-31T10:25:16;31.87;;;21.30;;
6723;SDS011;3399;52.530;13.304;2022-10-31T10:33:13;25.23;;;20.93;;
6723;SDS011;3399;52.530;13.304;2022-10-31T10:35:46;29.90;;;20.20;;
6723;SDS011;3399;52.530;13.304;2022-10-31T10:38:33;30.07;;;22.00;;
6723;SDS011;3399;52.530;13.304;2022-10-31T10:41:14;28.07;;;21.33;;
6723;SDS011;3399;52.530;13.304;2022-10-31T10:43:42;29.43;;;21.47;;
6723;SDS011;3399;52.530;13.304;2022-10-31T10:49:15;27.80;;;20.53;;
6723;SDS011;3399;52.530;13.304;2022-10-31T10:54:33;25.80;;;19.43;;
6723;SDS011;3399;52.530;13.304;2022-10-31T10:59:57;32.30;;;21.53;;
6723;SDS011;3399;52.530;13.304;2022-10-31T11:02:26;29.03;;;22.03;;
6723;SDS011;3399;52.530;13.304;2022-10-31T11:04:57;29.67;;;21.47;;
6723;SDS011;3399;52.530;13.304;2022-10-31T11:07:24;24.40;;;18.90;;
6723;SDS011;3399;52.530;13.304;2022-10-31T11:09:50;31.07;;;21.53;;
6723;SDS011;3399;52.530;13.304;2022-10-31T11:12:29;27.63;;;19.73;;
6723;SDS011;3399;52.530;13.304;2022-10-31T11:15:02;31.53;;;22.17;;
6723;SDS011;3399;52.530;13.304;2022-10-31T11:17:33;32.27;;;23.00;;
6723;SDS011;3399;52.530;13.304;2022-10-31T11:22:42;29.60;;;22.67;;
6723;SDS011;3399;52.530;13.304;2022-10-31T11:27:44;28.23;;;22.43;;
6723;SDS011;3399;52.530;13.304;2022-10-31T11:30:31;30.90;;;23.80;;
6723;SDS011;3399;52.530;13.304;2022-10-31T11:33:11;34.10;;;22.27;;
6723;SDS011;3399;52.530;13.304;2022-10-31T11:35:46;33.67;;;23.27;;
6723;SDS011;3399;52.530;13.304;2022-10-31T11:38:15;28.03;;;20.50;;
6723;SDS011;3399;52.530;13.304;2022-10-31T11:40:54;24.17;;;21.53;;
6723;SDS011;3399;52.530;13.304;2022-10-31T11:43:24;30.03;;;20.83;;
6723;SDS011;3399;52.530;13.304;2022-10-31T11:45:51;35.07;;;24.10;;
6723;SDS011;3399;52.530;13.304;2022-10-31T11:48:20;29.57;;;22.00;;
6723;SDS011;3399;52.530;13.304;2022-10-31T11:50:52;26.07;;;20.77;;
6723;SDS011;3399;52.530;13.304;2022-10-31T11:53:24;29.43;;;20.20;;
6723;SDS011;3399;52.530;13.304;2022-10-31T11:56:26;29.03;;;20.40;;
6723;SDS011;3399;52.530;13.304;2022-10-31T11:58:54;26.97;;;18.80;;
6723;SDS011;3399;52.530;13.304;2022-10-31T12:01:26;29.40;;;20.43;;
6723;SDS011;3399;52.530;13.304;2022-10-31T12:06:24;29.37;;;20.40;;
6723;SDS011;3399;52.530;13.304;2022-10-31T12:08:56;28.43;;;20.57;;
6723;SDS011;3399;52.530;13.304;2022-10-31T12:14:30;29.70;;;20.00;;
6723;SDS011;3399;52.530;13.304;2022-10-31T12:17:11;29.93;;;20.57;;
6723;SDS011;3399;52.530;13.304;2022-10-31T12:20:00;32.53;;;20.17;;
6723;SDS011;3399;52.530;13.304;2022-10-31T12:22:48;24.50;;;19.53;;
6723;SDS011;3399;52.530;13.304;2022-10-31T12:25:34;22.30;;;18.03;;
6723;SDS011;3399;52.530;13.304;2022-10-31T12:28:13;22.40;;;18.80;;
6723;SDS011;3399;52.530;13.304;2022-10-31T12:33:55;27.23;;;18.93;;
6723;SDS011;3399;52.530;13.304;2022-10-31T12:36:59;23.27;;;16.57;;
6723;SDS011;3399;52.530;13.304;2022-10-31T12:39:54;23.80;;;19.17;;
6723;SDS011;3399;52.530;13.304;2022-10-31T12:42:52;22.60;;;16.37;;
6723;SDS011;3399;52.530;13.304;2022-10-31T12:48:20;25.60;;;18.00;;
6723;SDS011;3399;52.530;13.304;2022-10-31T12:51:22;26.17;;;17.77;;
6723;SDS011;3399;52.530;13.304;2022-10-31T12:54:22;27.27;;;20.17;;
6723;SDS011;3399;52.530;13.304;2022-10-31T12:59:51;32.60;;;21.92;;
6723;SDS011;3399;52.530;13.304;2022-10-31T13:02:24;35.17;;;23.70;;
6723;SDS011;3399;52.530;13.304;2022-10-31T13:05:10;33.60;;;23.48;;
6723;SDS011;3399;52.530;13.304;2022-10-31T13:07:44;35.60;;;25.92;;
6723;SDS011;3399;52.530;13.304;2022-10-31T13:10:21;31.13;;;25.37;;
6723;SDS011;3399;52.530;13.304;2022-10-31T13:12:51;34.63;;;25.93;;
6723;SDS011;3399;52.530;13.304;2022-10-31T13:15:23;36.80;;;25.70;;
6723;SDS011;3399;52.530;13.304;2022-10-31T13:17:59;29.20;;;22.93;;
6723;SDS011;3399;52.530;13.304;2022-10-31T13:20:30;36.73;;;26.03;;
6723;SDS011;3399;52.530;13.304;2022-10-31T13:23:10;43.50;;;26.20;;
6723;SDS011;3399;52.530;13.304;2022-10-31T13:25:44;38.73;;;26.60;;
6723;SDS011;3399;52.530;13.304;2022-10-31T13:28:23;36.73;;;27.03;;
6723;SDS011;3399;52.530;13.304;2022-10-31T13:31:01;35.90;;;27.17;;
6723;SDS011;3399;52.530;13.304;2022-10-31T13:33:31;34.33;;;27.63;;
6723;SDS011;3399;52.530;13.304;2022-10-31T13:36:36;36.70;;;28.70;;
6723;SDS011;3399;52.530;13.304;2022-10-31T13:38:59;38.27;;;28.57;;
6723;SDS011;3399;52.530;13.304;2022-10-31T13:41:48;36.30;;;28.60;;
6723;SDS011;3399;52.530;13.304;2022-10-31T13:44:21;36.67;;;27.17;;
6723;SDS011;3399;52.530;13.304;2022-10-31T13:46:49;38.70;;;28.47;;
6723;SDS011;3399;52.530;13.304;2022-10-31T13:49:21;38.30;;;28.90;;
6723;SDS011;3399;52.530;13.304;2022-10-31T13:54:36;34.87;;;28.43;;
6723;SDS011;3399;52.530;13.304;2022-10-31T13:57:06;39.27;;;30.30;;
6723;SDS011;3399;52.530;13.304;2022-10-31T13:59:45;39.90;;;28.67;;
6723;SDS011;3399;52.530;13.304;2022-10-31T14:02:23;40.70;;;29.83;;
6723;SDS011;3399;52.530;13.304;2022-10-31T14:04:59;44.53;;;31.83;;
6723;SDS011;3399;52.530;13.304;2022-10-31T14:07:27;39.43;;;29.80;;
6723;SDS011;3399;52.530;13.304;2022-10-31T14:10:02;37.63;;;29.50;;
6723;SDS011;3399;52.530;13.304;2022-10-31T14:15:14;43.93;;;31.03;;
6723;SDS011;3399;52.530;13.304;2022-10-31T14:17:48;44.47;;;33.03;;
6723;SDS011;3399;52.530;13.304;2022-10-31T14:20:34;46.50;;;32.30;;
6723;SDS011;3399;52.530;13.304;2022-10-31T14:26:17;44.20;;;31.40;;
6723;SDS011;3399;52.530;13.304;2022-10-31T14:31:53;51.57;;;33.27;;
6723;SDS011;3399;52.530;13.304;2022-10-31T14:43:12;45.63;;;32.67;;
6723;SDS011;3399;52.530;13.304;2022-10-31T14:45:57;58.03;;;33.97;;
6723;SDS011;3399;52.530;13.304;2022-10-31T14:51:47;56.70;;;36.00;;
6723;SDS011;3399;52.530;13.304;2022-10-31T14:54:15;52.03;;;35.13;;
6723;SDS011;3399;52.530;13.304;2022-10-31T14:56:49;61.43;;;38.70;;
6723;SDS011;3399;52.530;13.304;2022-10-31T14:59:19;58.30;;;36.60;;
6723;SDS011;3399;52.530;13.304;2022-10-31T15:01:54;55.23;;;38.03;;
6723;SDS011;3399;52.530;13.304;2022-10-31T15:04:23;44.17;;;32.10;;
6723;SDS011;3399;52.530;13.304;2022-10-31T15:06:52;42.57;;;32.40;;
6723;SDS011;3399;52.530;13.304;2022-10-31T15:09:28;47.00;;;33.47;;
6723;SDS011;3399;52.530;13.304;2022-10-31T15:11:59;69.87;;;36.63;;
6723;SDS011;3399;52.530;13.304;2022-10-31T15:14:26;59.57;;;34.77;;
6723;SDS011;3399;52.530;13.304;2022-10-31T15:16:53;58.23;;;36.40;;
6723;SDS011;3399;52.530;13.304;2022-10-31T15:19:22;50.60;;;35.70;;
6723;SDS011;3399;52.530;13.304;2022-10-31T15:21:50;51.77;;;36.93;;
6723;SDS011;3399;52.530;13.304;2022-10-31T15:24:18;60.50;;;39.70;;
6723;SDS011;3399;52.530;13.304;2022-10-31T15:26:50;49.47;;;35.37;;
6723;SDS011;3399;52.530;13.304;2022-10-31T15:29:19;57.43;;;37.63;;
6723;SDS011;3399;52.530;13.304;2022-10-31T15:34:19;57.03;;;37.43;;
6723;SDS011;3399;52.530;13.304;2022-10-31T15:36:48;51.07;;;34.20;;
6723;SDS011;3399;52.530;13.304;2022-10-31T15:39:15;54.60;;;37.03;;
6723;SDS011;3399;52.530;13.304;2022-10-31T15:41:54;58.83;;;38.90;;
6723;SDS011;3399;52.530;13.304;2022-10-31T15:44:28;51.07;;;35.87;;
6723;SDS011;3399;52.530;13.304;2022-10-31T15:46:57;51.23;;;34.47;;
6723;SDS011;3399;52.530;13.304;2022-10-31T15:51:56;46.30;;;33.07;;
6723;SDS011;3399;52.530;13.304;2022-10-31T15:54:25;53.23;;;33.23;;
6723;SDS011;3399;52.530;13.304;2022-10-31T15:56:51;41.93;;;29.73;;
6723;SDS011;3399;52.530;13.304;2022-10-31T15:59:19;38.97;;;32.07;;
6723;SDS011;3399;52.530;13.304;2022-10-31T16:02:00;36.57;;;28.60;;
6723;SDS011;3399;52.530;13.304;2022-10-31T16:04:34;43.13;;;30.43;;
6723;SDS011;3399;52.530;13.304;2022-10-31T16:07:13;49.40;;;32.60;;
6723;SDS011;3399;52.530;13.304;2022-10-31T16:09:58;46.40;;;34.10;;
6723;SDS011;3399;52.530;13.304;2022-10-31T16:12:28;48.30;;;31.13;;
6723;SDS011;3399;52.530;13.304;2022-10-31T16:14:59;42.57;;;31.10;;
6723;SDS011;3399;52.530;13.304;2022-10-31T16:17:26;47.13;;;33.93;;
6723;SDS011;3399;52.530;13.304;2022-10-31T16:19:57;46.57;;;33.00;;
6723;SDS011;3399;52.530;13.304;2022-10-31T16:22:32;49.23;;;32.80;;
6723;SDS011;3399;52.530;13.304;2022-10-31T16:27:51;47.63;;;34.00;;
6723;SDS011;3399;52.530;13.304;2022-10-31T16:30:32;46.17;;;32.97;;